Time;durP1;ratioP1;P1;durP2;ratioP2;P2;SDS_P1;SDS_P2;PMS_P1;PMS_P2;Temp;Humidity;BMP_temperature;BMP_pressure;BME280_temperature;BME280_humidity;BME280_pressure;Samples;Min_cycle;Max_cycle;Signal;HPM_P1;HPM_P2
2023/12/24 00:00:45;;;;;;;0.50;0.50;;;;;;;9.25;100.00;97917.88;5075865;28;20224;-73
2023/12/24 00:03:11;;;;;;;1.60;0.50;;;;;;;9.33;100.00;97928.22;5076223;28;20211;-73
2023/12/24 00:05:37;;;;;;;0.63;0.40;;;;;;;9.30;100.00;97922.53;5076561;28;20201;-73
2023/12/24 00:08:04;;;;;;;0.43;0.43;;;;;;;9.29;100.00;97927.03;5076126;28;20208;-73
2023/12/24 00:10:30;;;;;;;0.50;0.50;;;;;;;9.30;100.00;97928.66;5075291;28;20727;-73
2023/12/24 00:12:57;;;;;;;0.60;0.50;;;;;;;9.32;100.00;97926.59;5076124;28;20205;-73
2023/12/24 00:15:23;;;;;;;0.30;0.30;;;;;;;9.27;100.00;97928.25;5075264;28;20565;-73
2023/12/24 00:17:49;;;;;;;0.37;0.37;;;;;;;9.35;100.00;97930.66;5075271;28;20207;-73
2023/12/24 00:20:16;;;;;;;0.40;0.40;;;;;;;9.36;100.00;97933.09;5075994;28;20225;-73
2023/12/24 00:22:42;;;;;;;0.40;0.40;;;;;;;9.26;100.00;97911.53;5075809;28;20224;-73
2023/12/24 00:25:09;;;;;;;0.40;0.40;;;;;;;9.33;100.00;97911.50;5075858;28;20204;-72
2023/12/24 00:27:35;;;;;;;0.60;0.40;;;;;;;9.27;100.00;97915.81;5075616;28;20669;-72
2023/12/24 00:30:01;;;;;;;0.87;0.50;;;;;;;9.26;100.00;97916.84;5075487;28;20731;-72
2023/12/24 00:32:27;;;;;;;0.93;0.40;;;;;;;9.20;100.00;97916.88;5075454;28;20205;-72
2023/12/24 00:34:54;;;;;;;0.73;0.50;;;;;;;9.23;100.00;97913.81;5075348;28;20215;-72
2023/12/24 00:37:21;;;;;;;0.40;0.40;;;;;;;9.23;100.00;97903.19;5075663;28;20220;-72
2023/12/24 00:39:47;;;;;;;0.40;0.40;;;;;;;9.25;100.00;97907.25;5075318;28;20590;-72
2023/12/24 00:42:14;;;;;;;0.30;0.30;;;;;;;9.20;100.00;97916.88;5075453;28;20228;-72
2023/12/24 00:44:43;;;;;;;0.37;0.37;;;;;;;9.29;100.00;97894.38;5075498;28;20576;-72
2023/12/24 00:47:09;;;;;;;0.37;0.30;;;;;;;9.22;100.00;97894.41;5075289;28;20231;-72
2023/12/24 00:49:36;;;;;;;0.53;0.43;;;;;;;9.20;100.00;97898.31;5075055;28;20715;-72
2023/12/24 00:52:02;;;;;;;0.40;0.40;;;;;;;9.23;100.00;97884.63;5075422;28;20205;-72
2023/12/24 00:54:28;;;;;;;0.40;0.30;;;;;;;9.23;100.00;97889.94;5075297;28;20201;-72
2023/12/24 00:56:55;;;;;;;0.40;0.40;;;;;;;9.25;100.00;97888.69;5075177;28;20200;-72
2023/12/24 00:59:21;;;;;;;0.50;0.50;;;;;;;9.26;100.00;97900.94;5075377;28;20228;-72
2023/12/24 01:01:47;;;;;;;0.50;0.50;;;;;;;9.30;100.00;97896.81;5075111;28;20224;-72
2023/12/24 01:04:14;;;;;;;0.40;0.40;;;;;;;9.30;100.00;97886.22;5075547;28;20299;-72
2023/12/24 01:06:40;;;;;;;0.20;0.20;;;;;;;9.28;100.00;97888.25;5074934;28;20208;-72
2023/12/24 01:09:07;;;;;;;0.40;0.40;;;;;;;9.29;100.00;97899.69;5074839;28;20220;-72
2023/12/24 01:11:33;;;;;;;1.47;0.50;;;;;;;9.28;100.00;97892.75;5074793;28;20210;-72
2023/12/24 01:13:59;;;;;;;0.60;0.50;;;;;;;9.24;100.00;97891.56;5075427;28;20205;-72
2023/12/24 01:16:26;;;;;;;0.40;0.40;;;;;;;9.25;100.00;97903.78;5074884;28;20205;-72
2023/12/24 01:18:52;;;;;;;0.40;0.33;;;;;;;9.11;100.00;97897.75;5074324;28;20205;-72
2023/12/24 01:21:18;;;;;;;0.40;0.40;;;;;;;9.13;100.00;97900.19;5074158;28;20228;-72
2023/12/24 01:23:44;;;;;;;0.30;0.30;;;;;;;9.22;100.00;97899.72;5074726;28;20201;-72
2023/12/24 01:26:11;;;;;;;0.47;0.47;;;;;;;9.13;100.00;97901.00;5074962;28;20209;-72
2023/12/24 01:28:37;;;;;;;0.37;0.37;;;;;;;9.20;100.00;97912.41;5074913;28;20201;-72
2023/12/24 01:31:04;;;;;;;0.37;0.37;;;;;;;9.29;100.00;97918.25;5075321;28;20574;-72
2023/12/24 01:33:30;;;;;;;0.60;0.40;;;;;;;9.21;100.00;97895.44;5074268;28;20664;-72
2023/12/24 01:35:56;;;;;;;0.40;0.40;;;;;;;9.23;100.00;97908.50;5074584;28;20220;-72
2023/12/24 01:38:22;;;;;;;0.40;0.30;;;;;;;9.16;100.00;97899.75;5074439;28;20204;-72
2023/12/24 01:40:50;;;;;;;1.20;0.60;;;;;;;9.19;100.00;97904.66;5074293;28;20220;-72
2023/12/24 01:43:16;;;;;;;0.50;0.50;;;;;;;9.16;100.00;97887.31;5074170;28;20319;-72
2023/12/24 01:45:43;;;;;;;0.40;0.40;;;;;;;9.16;100.00;97874.06;5074390;28;20213;-72
2023/12/24 01:48:10;;;;;;;0.57;0.43;;;;;;;9.06;100.00;97881.66;5073842;28;20209;-72
2023/12/24 01:50:37;;;;;;;0.50;0.50;;;;;;;9.12;100.00;97867.56;5074204;28;20584;-72
2023/12/24 01:53:05;;;;;;;0.87;0.50;;;;;;;9.12;100.00;97874.69;5074231;28;20200;-72
2023/12/24 01:55:32;;;;;;;0.40;0.40;;;;;;;9.10;100.00;97874.91;5074131;28;20208;-72
2023/12/24 01:57:58;;;;;;;0.40;0.40;;;;;;;9.05;100.00;97866.78;5073682;28;20663;-72
2023/12/24 02:00:25;;;;;;;0.50;0.50;;;;;;;9.16;100.00;97881.19;5073698;28;20232;-72
2023/12/24 02:02:51;;;;;;;1.13;0.40;;;;;;;9.11;100.00;97891.63;5073620;28;20234;-72
2023/12/24 02:05:18;;;;;;;0.40;0.40;;;;;;;9.01;100.00;97897.41;5073650;28;20678;-72
2023/12/24 02:07:47;;;;;;;0.40;0.40;;;;;;;9.13;100.00;97905.47;5073919;28;20204;-72
2023/12/24 02:10:14;;;;;;;0.93;0.60;;;;;;;9.09;100.00;97901.66;5073698;28;20220;-72
2023/12/24 02:12:40;;;;;;;1.30;0.43;;;;;;;9.00;100.00;97890.47;5073510;28;20209;-72
2023/12/24 02:15:07;;;;;;;0.50;0.50;;;;;;;8.95;100.00;97881.53;5073583;28;20634;-72
2023/12/24 02:17:35;;;;;;;0.57;0.50;;;;;;;9.01;100.00;97889.44;5073502;28;20664;-72
2023/12/24 02:20:01;;;;;;;1.23;0.50;;;;;;;9.03;100.00;97874.16;5073695;28;20228;-72
2023/12/24 02:22:28;;;;;;;0.40;0.40;;;;;;;8.99;100.00;97893.31;5073707;28;20224;-72
2023/12/24 02:24:56;;;;;;;0.73;0.60;;;;;;;9.08;100.00;97889.41;5073358;28;20201;-72
2023/12/24 02:27:36;;;;;;;0.47;0.40;;;;;;;8.99;100.00;97894.16;5073626;28;20211;-72
2023/12/24 02:30:16;;;;;;;0.30;0.30;;;;;;;9.08;100.00;97900.84;5073599;28;20321;-72
2023/12/24 02:32:44;;;;;;;0.90;0.50;;;;;;;9.03;100.00;97892.72;5056599;28;20188;-72
2023/12/24 02:35:13;;;;;;;0.43;0.40;;;;;;;9.08;100.00;97881.44;5073612;28;20204;-72
2023/12/24 02:37:39;;;;;;;1.03;0.60;;;;;;;9.05;100.00;97911.84;5073544;28;20211;-72
2023/12/24 02:40:06;;;;;;;0.40;0.40;;;;;;;9.06;100.00;97912.69;5072528;28;20573;-72
2023/12/24 02:42:33;;;;;;;1.23;0.50;;;;;;;9.04;100.00;97898.81;5073503;28;20229;-73
2023/12/24 02:44:59;;;;;;;0.40;0.40;;;;;;;8.93;100.00;97899.50;5073525;28;20200;-72
2023/12/24 02:47:25;;;;;;;0.50;0.50;;;;;;;8.92;100.00;97900.53;5073264;28;20219;-73
2023/12/24 02:49:52;;;;;;;0.43;0.40;;;;;;;8.88;100.00;97908.06;5073412;28;20236;-73
2023/12/24 02:52:18;;;;;;;0.70;0.40;;;;;;;8.89;100.00;97906.25;5073446;28;20220;-72
2023/12/24 02:54:45;;;;;;;0.60;0.40;;;;;;;8.83;100.00;97902.59;5073430;28;20212;-72
2023/12/24 02:57:11;;;;;;;0.40;0.40;;;;;;;8.88;100.00;97907.28;5073375;28;20257;-73
2023/12/24 02:59:37;;;;;;;0.80;0.40;;;;;;;8.95;100.00;97906.22;5073322;28;20224;-72
2023/12/24 03:02:04;;;;;;;0.50;0.50;;;;;;;8.97;100.00;97903.34;5073205;28;20234;-72
2023/12/24 03:04:30;;;;;;;0.87;0.40;;;;;;;8.97;100.00;97911.31;5073253;28;20214;-72
2023/12/24 03:06:57;;;;;;;0.50;0.50;;;;;;;9.01;100.00;97902.69;5073270;28;20205;-72
2023/12/24 03:09:23;;;;;;;0.67;0.40;;;;;;;8.92;100.00;97893.38;5073223;28;20224;-72
2023/12/24 03:11:49;;;;;;;0.40;0.40;;;;;;;8.96;100.00;97896.44;5073260;28;20200;-72
2023/12/24 03:14:16;;;;;;;0.50;0.50;;;;;;;8.97;100.00;97893.53;5073109;28;20204;-72
2023/12/24 03:16:42;;;;;;;0.50;0.30;;;;;;;8.97;100.00;97888.22;5072868;28;20208;-72
2023/12/24 03:19:08;;;;;;;0.40;0.40;;;;;;;9.06;100.00;97899.41;5073150;28;20224;-72
2023/12/24 03:21:35;;;;;;;1.13;0.50;;;;;;;9.01;100.00;97892.09;5073097;28;20200;-72
2023/12/24 03:24:02;;;;;;;0.50;0.50;;;;;;;8.98;100.00;97881.09;5073201;28;20215;-72
2023/12/24 03:26:29;;;;;;;0.40;0.40;;;;;;;8.93;100.00;97889.72;5072802;28;20668;-72
2023/12/24 03:28:56;;;;;;;0.40;0.40;;;;;;;8.93;100.00;97876.47;5073060;28;20212;-72
2023/12/24 03:31:25;;;;;;;0.40;0.40;;;;;;;9.01;100.00;97886.00;5073444;28;20609;-72
2023/12/24 03:33:52;;;;;;;0.60;0.40;;;;;;;8.98;100.00;97892.53;5072704;28;20235;-72
2023/12/24 03:36:18;;;;;;;0.50;0.50;;;;;;;9.04;100.00;97896.16;5073035;28;20330;-73
2023/12/24 03:38:45;;;;;;;0.40;0.40;;;;;;;8.97;100.00;97882.13;5072948;28;20206;-72
2023/12/24 03:41:12;;;;;;;1.17;0.50;;;;;;;9.00;100.00;97884.38;5072960;28;20209;-72
2023/12/24 03:43:39;;;;;;;0.70;0.50;;;;;;;8.94;100.00;97869.28;5072867;28;20228;-72
2023/12/24 03:46:05;;;;;;;0.73;0.53;;;;;;;8.92;100.00;97895.22;5072957;28;20211;-72
2023/12/24 03:48:33;;;;;;;0.77;0.50;;;;;;;8.99;100.00;97888.03;5072487;28;20671;-72
2023/12/24 03:50:59;;;;;;;0.50;0.50;;;;;;;9.01;100.00;97891.28;5074480;28;20236;-72
2023/12/24 03:53:25;;;;;;;0.47;0.47;;;;;;;8.95;100.00;97879.69;5076503;28;20204;-72
2023/12/24 03:55:52;;;;;;;0.70;0.53;;;;;;;9.00;100.00;97879.88;5076745;28;20208;-72
2023/12/24 03:58:18;;;;;;;0.50;0.50;;;;;;;8.98;100.00;97881.94;5076371;28;20215;-72
2023/12/24 04:00:45;;;;;;;0.43;0.43;;;;;;;8.97;100.00;97879.47;5076342;28;20236;-72
2023/12/24 04:03:11;;;;;;;2.13;0.50;;;;;;;8.97;100.00;97876.84;5076154;28;20224;-72
2023/12/24 04:05:37;;;;;;;0.40;0.40;;;;;;;8.90;100.00;97876.03;5076090;28;20215;-72
2023/12/24 04:08:04;;;;;;;0.40;0.40;;;;;;;8.86;100.00;97865.06;5076055;28;20216;-72
2023/12/24 04:10:31;;;;;;;0.50;0.50;;;;;;;8.81;100.00;97872.84;5075680;28;20603;-72
2023/12/24 04:13:02;;;;;;;0.73;0.50;;;;;;;8.87;100.00;97871.19;5076022;28;20197;-72
2023/12/24 04:15:28;;;;;;;0.97;0.60;;;;;;;8.89;100.00;97863.81;5076093;28;20205;-72
2023/12/24 04:17:55;;;;;;;0.50;0.50;;;;;;;8.87;100.00;97874.63;5075674;28;20685;-72
2023/12/24 04:20:21;;;;;;;0.40;0.40;;;;;;;8.83;100.00;97873.44;5075536;28;20719;-72
2023/12/24 04:22:48;;;;;;;0.60;0.60;;;;;;;8.84;100.00;97863.66;5075804;28;20220;-73
2023/12/24 04:25:14;;;;;;;0.60;0.60;;;;;;;8.93;100.00;97871.16;5075869;28;20215;-73
2023/12/24 04:27:40;;;;;;;2.57;0.50;;;;;;;8.95;100.00;97855.00;5075566;28;20668;-73
2023/12/24 04:30:07;;;;;;;0.50;0.43;;;;;;;8.94;100.00;97870.13;5075415;28;20224;-72
2023/12/24 04:32:34;;;;;;;0.60;0.60;;;;;;;8.97;100.00;97868.88;5075734;28;20196;-72
2023/12/24 04:35:00;;;;;;;0.57;0.57;;;;;;;8.97;100.00;97860.94;5075684;28;20205;-72
2023/12/24 04:37:27;;;;;;;0.50;0.50;;;;;;;8.95;100.00;97862.97;5075538;28;20213;-73
2023/12/24 04:39:53;;;;;;;0.53;0.53;;;;;;;9.03;100.00;97868.03;5075320;28;20224;-72
2023/12/24 04:42:19;;;;;;;0.97;0.50;;;;;;;8.96;100.00;97854.81;5075343;28;20225;-72
2023/12/24 04:44:46;;;;;;;0.47;0.47;;;;;;;8.89;100.00;97854.03;5075903;28;20204;-72
2023/12/24 04:47:12;;;;;;;0.70;0.50;;;;;;;8.85;100.00;97841.41;5075198;28;20210;-73
2023/12/24 04:49:39;;;;;;;0.60;0.60;;;;;;;8.84;100.00;97848.56;5075274;28;20251;-72
2023/12/24 04:52:05;;;;;;;1.97;0.50;;;;;;;8.83;100.00;97838.97;5075310;28;20211;-73
2023/12/24 04:54:32;;;;;;;1.10;0.50;;;;;;;8.85;100.00;97838.75;5075215;28;20204;-72
2023/12/24 04:56:59;;;;;;;0.80;0.80;;;;;;;8.79;100.00;97837.75;5075237;28;20208;-73
2023/12/24 04:59:25;;;;;;;0.70;0.57;;;;;;;8.81;100.00;97816.34;5075127;28;20228;-72
2023/12/24 05:01:51;;;;;;;0.60;0.60;;;;;;;8.80;100.00;97820.03;5074729;28;20212;-72
2023/12/24 05:04:18;;;;;;;0.67;0.60;;;;;;;8.65;100.00;97803.63;5075193;28;20204;-72
2023/12/24 05:06:44;;;;;;;0.57;0.50;;;;;;;8.66;100.00;97792.00;5074989;28;20201;-73
2023/12/24 05:09:11;;;;;;;2.00;0.60;;;;;;;8.67;100.00;97788.31;5074815;28;20224;-72
2023/12/24 05:11:40;;;;;;;1.20;0.60;;;;;;;8.60;100.00;97783.03;5074818;28;20208;-72
2023/12/24 05:14:06;;;;;;;0.50;0.50;;;;;;;8.62;100.00;97772.25;5074909;28;20201;-72
2023/12/24 05:16:32;;;;;;;1.80;0.50;;;;;;;8.62;100.00;97774.88;5074417;28;20568;-72
2023/12/24 05:18:59;;;;;;;0.40;0.40;;;;;;;8.60;100.00;97766.34;5074393;28;20574;-72
2023/12/24 05:21:29;;;;;;;0.60;0.50;;;;;;;8.54;100.00;97775.13;5074721;28;20261;-72
2023/12/24 05:23:55;;;;;;;1.37;0.60;;;;;;;8.56;100.00;97776.53;5074219;28;20699;-72
2023/12/24 05:26:22;;;;;;;0.33;0.33;;;;;;;8.54;100.00;97786.56;5074621;28;20200;-72
2023/12/24 05:28:48;;;;;;;0.50;0.50;;;;;;;8.48;100.00;97781.28;5074573;28;20204;-72
2023/12/24 05:31:14;;;;;;;0.50;0.50;;;;;;;8.48;100.00;97789.25;5074611;28;20204;-72
2023/12/24 05:33:41;;;;;;;0.87;0.40;;;;;;;8.50;100.00;97795.13;5074200;28;20246;-72
2023/12/24 05:36:13;;;;;;;0.70;0.30;;;;;;;8.49;100.00;97793.50;5074366;28;20208;-72
2023/12/24 05:38:39;;;;;;;0.77;0.37;;;;;;;8.50;100.00;97803.06;5074372;28;20193;-72
2023/12/24 05:41:09;;;;;;;0.50;0.50;;;;;;;8.52;100.00;97811.63;5074390;28;20220;-72
2023/12/24 05:43:35;;;;;;;0.40;0.40;;;;;;;8.51;100.00;97815.31;5074051;28;20270;-72
2023/12/24 05:46:01;;;;;;;0.30;0.30;;;;;;;8.58;100.00;97814.25;5074233;28;20200;-72
2023/12/24 05:48:28;;;;;;;0.40;0.40;;;;;;;8.60;100.00;97816.69;5073750;28;20209;-72
2023/12/24 05:50:54;;;;;;;0.63;0.33;;;;;;;8.59;100.00;97812.41;5073688;28;20707;-72
2023/12/24 05:53:20;;;;;;;0.30;0.30;;;;;;;8.63;100.00;97792.41;5074036;28;20201;-72
2023/12/24 05:55:47;;;;;;;0.30;0.30;;;;;;;8.66;100.00;97805.25;5074021;28;20201;-72
2023/12/24 05:58:13;;;;;;;0.30;0.30;;;;;;;8.59;100.00;97802.63;5074068;28;20208;-72
2023/12/24 06:00:40;;;;;;;0.27;0.27;;;;;;;8.61;100.00;97797.13;5073917;28;20231;-72
2023/12/24 06:03:06;;;;;;;0.43;0.43;;;;;;;8.56;100.00;97805.69;5073941;28;20217;-72
2023/12/24 06:05:33;;;;;;;0.40;0.40;;;;;;;8.60;100.00;97817.50;5073556;28;20299;-72
2023/12/24 06:07:59;;;;;;;0.43;0.40;;;;;;;8.58;100.00;97802.84;5073516;28;20204;-73
2023/12/24 06:10:26;;;;;;;0.63;0.30;;;;;;;8.61;100.00;97803.25;5073767;28;20228;-73
2023/12/24 06:12:54;;;;;;;0.40;0.40;;;;;;;8.58;100.00;97795.72;5073407;28;20219;-73
2023/12/24 06:15:20;;;;;;;0.40;0.40;;;;;;;8.65;100.00;97774.47;5072999;28;20210;-73
2023/12/24 06:17:47;;;;;;;0.40;0.40;;;;;;;8.59;100.00;97783.25;5073813;28;20254;-73
2023/12/24 06:20:13;;;;;;;0.70;0.40;;;;;;;8.55;100.00;97780.22;5073409;28;20228;-73
2023/12/24 06:22:40;;;;;;;0.37;0.30;;;;;;;8.41;100.00;97780.53;5073226;28;20225;-73
2023/12/24 06:25:07;;;;;;;0.40;0.40;;;;;;;8.50;100.00;97779.22;5073399;28;20211;-73
2023/12/24 06:27:34;;;;;;;0.43;0.30;;;;;;;8.47;100.00;97779.66;5073724;28;20304;-72
2023/12/24 06:30:00;;;;;;;0.27;0.27;;;;;;;8.52;100.00;97769.25;5073610;28;20307;-72
2023/12/24 06:32:27;;;;;;;0.30;0.30;;;;;;;8.61;100.00;97778.56;5073658;28;20215;-72
2023/12/24 06:34:53;;;;;;;0.93;0.30;;;;;;;8.53;100.00;97754.97;5073519;28;20213;-72
2023/12/24 06:37:20;;;;;;;0.50;0.50;;;;;;;8.51;100.00;97773.72;5073198;28;20569;-72
2023/12/24 06:39:46;;;;;;;0.40;0.40;;;;;;;8.56;100.00;97759.84;5073302;28;20228;-73
2023/12/24 06:42:12;;;;;;;0.60;0.40;;;;;;;8.64;100.00;97759.59;5073286;28;20204;-72
2023/12/24 06:44:42;;;;;;;0.30;0.30;;;;;;;8.59;100.00;97759.41;5073319;28;20224;-72
2023/12/24 06:47:08;;;;;;;0.80;0.60;;;;;;;8.72;100.00;97759.31;5073290;28;20205;-72
2023/12/24 06:49:34;;;;;;;1.50;0.40;;;;;;;8.72;100.00;97748.72;5073311;28;20233;-72
2023/12/24 06:52:01;;;;;;;0.50;0.40;;;;;;;8.73;100.00;97745.06;5073348;28;20200;-72
2023/12/24 06:54:27;;;;;;;0.30;0.30;;;;;;;8.75;100.00;97743.84;5073315;28;20203;-72
2023/12/24 06:56:54;;;;;;;0.47;0.40;;;;;;;8.76;100.00;97755.22;5073402;28;20200;-73
2023/12/24 06:59:20;;;;;;;0.30;0.30;;;;;;;8.78;100.00;97750.53;5073287;28;20221;-73
2023/12/24 07:01:47;;;;;;;0.40;0.40;;;;;;;8.79;100.00;97757.47;5073424;28;20200;-73
2023/12/24 07:04:13;;;;;;;0.40;0.40;;;;;;;8.72;100.00;97749.56;5073291;28;20221;-73
2023/12/24 07:06:39;;;;;;;0.73;0.40;;;;;;;8.80;100.00;97745.81;5073125;28;20204;-73
2023/12/24 07:09:07;;;;;;;0.47;0.47;;;;;;;8.89;100.00;97747.19;5072946;28;20296;-73
2023/12/24 07:11:33;;;;;;;0.47;0.47;;;;;;;8.94;100.00;97742.03;5072916;28;20215;-73
2023/12/24 07:13:59;;;;;;;0.40;0.40;;;;;;;8.93;100.00;97735.13;5072755;28;20582;-73
2023/12/24 07:16:26;;;;;;;0.40;0.40;;;;;;;8.94;100.00;97723.47;5072906;28;20211;-73
2023/12/24 07:18:52;;;;;;;0.40;0.40;;;;;;;8.99;100.00;97732.41;5072738;28;20586;-73
2023/12/24 07:21:18;;;;;;;0.73;0.30;;;;;;;8.95;100.00;97725.94;5072902;28;20660;-73
2023/12/24 07:23:45;;;;;;;0.87;0.40;;;;;;;9.13;100.00;97735.75;5073054;28;20227;-72
2023/12/24 07:26:11;;;;;;;0.67;0.40;;;;;;;9.05;100.00;97730.75;5075217;28;20200;-73
2023/12/24 07:28:37;;;;;;;0.40;0.40;;;;;;;9.06;100.00;97741.13;5076945;28;20215;-73
2023/12/24 07:31:04;;;;;;;0.73;0.33;;;;;;;9.13;100.00;97744.53;5076762;28;20238;-73
2023/12/24 07:33:30;;;;;;;2.80;0.60;;;;;;;9.12;100.00;97742.09;5076912;28;20211;-73
2023/12/24 07:35:57;;;;;;;0.33;0.30;;;;;;;9.03;100.00;97727.50;5076701;28;20207;-72
2023/12/24 07:38:29;;;;;;;0.30;0.30;;;;;;;9.02;100.00;97733.81;5076683;28;20213;-72
2023/12/24 07:40:55;;;;;;;0.40;0.40;;;;;;;8.96;100.00;97718.78;5076521;28;20229;-72
2023/12/24 07:43:21;;;;;;;0.50;0.40;;;;;;;9.02;100.00;97708.13;5076538;28;20224;-72
2023/12/24 07:45:48;;;;;;;0.93;0.50;;;;;;;9.04;100.00;97695.47;5076398;28;20200;-72
2023/12/24 07:48:14;;;;;;;0.53;0.40;;;;;;;9.08;100.00;97701.94;5076165;28;20220;-72
2023/12/24 07:50:41;;;;;;;0.53;0.50;;;;;;;9.02;100.00;97696.72;5076127;28;20231;-73
2023/12/24 07:53:08;;;;;;;0.50;0.40;;;;;;;8.99;100.00;97699.78;5076278;28;20201;-73
2023/12/24 07:55:34;;;;;;;0.40;0.40;;;;;;;8.90;100.00;97696.59;5076276;28;20200;-73
2023/12/24 07:58:00;;;;;;;0.30;0.30;;;;;;;8.93;100.00;97708.63;5076443;28;20231;-73
2023/12/24 08:00:27;;;;;;;0.90;0.33;;;;;;;8.94;100.00;97702.28;5076832;28;20231;-73
2023/12/24 08:02:53;;;;;;;0.40;0.40;;;;;;;8.96;100.00;97702.88;5076150;28;20212;-72
2023/12/24 08:05:20;;;;;;;0.40;0.40;;;;;;;9.03;100.00;97701.81;5075855;28;20717;-73
2023/12/24 08:07:46;;;;;;;0.30;0.30;;;;;;;9.14;100.00;97714.34;5075785;28;20690;-73
2023/12/24 08:10:12;;;;;;;0.40;0.40;;;;;;;9.14;100.00;97718.84;5075662;28;20593;-73
2023/12/24 08:12:39;;;;;;;0.70;0.30;;;;;;;9.16;100.00;97732.69;5076245;28;20212;-73
2023/12/24 08:15:07;;;;;;;0.47;0.40;;;;;;;9.15;100.00;97728.41;5075841;28;20208;-73
2023/12/24 08:17:33;;;;;;;0.60;0.20;;;;;;;9.16;100.00;97722.06;5075862;28;20663;-73
2023/12/24 08:19:59;;;;;;;0.63;0.40;;;;;;;9.17;100.00;97716.56;5075923;28;20311;-73
2023/12/24 08:22:26;;;;;;;0.40;0.30;;;;;;;9.21;100.00;97720.41;5075707;28;20204;-73
2023/12/24 08:24:52;;;;;;;0.40;0.40;;;;;;;9.24;100.00;97706.69;5075573;28;20224;-73
2023/12/24 08:27:19;;;;;;;0.40;0.37;;;;;;;9.26;100.00;97701.16;5075764;28;20204;-72
2023/12/24 08:29:45;;;;;;;0.30;0.30;;;;;;;9.30;100.00;97700.53;5075334;28;20228;-73
2023/12/24 08:32:12;;;;;;;1.07;0.33;;;;;;;9.30;100.00;97694.41;5075398;28;20205;-73
2023/12/24 08:34:38;;;;;;;1.27;0.40;;;;;;;9.29;100.00;97682.16;5075638;28;20201;-73
2023/12/24 08:37:04;;;;;;;0.30;0.30;;;;;;;9.34;100.00;97675.19;5074613;28;20213;-73
2023/12/24 08:39:31;;;;;;;0.30;0.30;;;;;;;9.31;100.00;97664.19;5075027;28;20708;-73
2023/12/24 08:41:57;;;;;;;0.67;0.40;;;;;;;9.33;100.00;97656.81;5075425;28;20215;-73
2023/12/24 08:44:23;;;;;;;0.43;0.40;;;;;;;9.34;100.00;97653.13;5075251;28;20231;-72
2023/12/24 08:46:50;;;;;;;0.73;0.30;;;;;;;9.40;100.00;97652.25;5075131;28;20211;-72
2023/12/24 08:49:16;;;;;;;0.30;0.30;;;;;;;9.42;100.00;97644.91;5074852;28;20236;-73
2023/12/24 08:51:43;;;;;;;0.33;0.33;;;;;;;9.41;100.00;97641.41;5075394;28;20201;-72
2023/12/24 08:54:09;;;;;;;0.20;0.20;;;;;;;9.48;100.00;97644.81;5075332;28;20197;-72
2023/12/24 08:56:36;;;;;;;0.30;0.30;;;;;;;9.52;100.00;97647.84;5075177;28;20200;-73
2023/12/24 08:59:04;;;;;;;0.87;0.30;;;;;;;9.56;100.00;97636.53;5075091;28;20232;-72
2023/12/24 09:01:31;;;;;;;0.30;0.30;;;;;;;9.63;100.00;97649.72;5075066;28;20204;-73
2023/12/24 09:03:57;;;;;;;0.30;0.30;;;;;;;9.63;100.00;97645.25;5074908;28;20220;-72
2023/12/24 09:06:23;;;;;;;0.40;0.20;;;;;;;9.64;100.00;97659.34;5074854;28;20216;-73
2023/12/24 09:08:50;;;;;;;0.40;0.23;;;;;;;9.68;100.00;97668.47;5074721;28;20201;-73
2023/12/24 09:11:16;;;;;;;0.20;0.20;;;;;;;9.66;100.00;97675.84;5074833;28;20212;-73
2023/12/24 09:13:42;;;;;;;0.30;0.30;;;;;;;9.55;100.00;97676.59;5074560;28;20205;-73
2023/12/24 09:16:09;;;;;;;1.50;0.40;;;;;;;9.52;100.00;97682.31;5074529;28;20208;-73
2023/12/24 09:18:35;;;;;;;0.33;0.30;;;;;;;9.46;100.00;97678.72;5074549;28;20567;-73
2023/12/24 09:21:02;;;;;;;0.23;0.23;;;;;;;9.38;100.00;97694.13;5074514;28;20231;-73
2023/12/24 09:23:28;;;;;;;0.57;0.40;;;;;;;9.28;100.00;97707.06;5074421;28;20231;-73
2023/12/24 09:25:54;;;;;;;0.50;0.20;;;;;;;9.26;100.00;97709.13;5074426;28;20204;-73
2023/12/24 09:28:21;;;;;;;0.57;0.30;;;;;;;9.18;100.00;97718.19;5074436;28;20211;-72
2023/12/24 09:30:47;;;;;;;0.37;0.37;;;;;;;9.03;100.00;97714.22;5074721;28;20227;-72
2023/12/24 09:33:13;;;;;;;0.30;0.30;;;;;;;9.03;100.00;97695.66;5074064;28;20663;-72
2023/12/24 09:35:40;;;;;;;0.80;0.40;;;;;;;9.05;100.00;97697.06;5074325;28;20240;-73
2023/12/24 09:38:07;;;;;;;0.60;0.40;;;;;;;9.03;100.00;97701.81;5074012;28;20667;-73
2023/12/24 09:40:33;;;;;;;0.30;0.30;;;;;;;9.05;100.00;97706.88;5074153;28;20230;-73
2023/12/24 09:43:00;;;;;;;0.63;0.40;;;;;;;9.02;100.00;97696.72;5074016;28;20227;-72
2023/12/24 09:45:28;;;;;;;0.30;0.30;;;;;;;9.02;100.00;97691.41;5073828;28;20718;-73
2023/12/24 09:47:54;;;;;;;1.33;0.50;;;;;;;8.97;100.00;97686.75;5073710;28;20645;-72
2023/12/24 09:50:21;;;;;;;0.97;0.40;;;;;;;8.88;100.00;97682.75;5074165;28;20224;-72
2023/12/24 09:52:49;;;;;;;0.27;0.27;;;;;;;8.91;100.00;97676.22;5074125;28;20205;-72
2023/12/24 09:55:15;;;;;;;0.40;0.33;;;;;;;8.89;100.00;97678.25;5073944;28;20196;-72
2023/12/24 09:57:41;;;;;;;0.57;0.40;;;;;;;8.91;100.00;97686.81;5073980;28;20216;-72
2023/12/24 10:00:09;;;;;;;1.97;0.33;;;;;;;8.89;100.00;97680.91;5073485;28;20225;-72
2023/12/24 10:02:36;;;;;;;0.30;0.30;;;;;;;8.93;100.00;97698.00;5073755;28;20212;-72
2023/12/24 10:05:04;;;;;;;0.30;0.30;;;;;;;8.99;100.00;97697.13;5073732;28;20231;-72
2023/12/24 10:07:39;;;;;;;0.93;0.40;;;;;;;8.97;100.00;97689.38;5073439;28;20238;-72
2023/12/24 10:10:08;;;;;;;0.40;0.40;;;;;;;9.01;100.00;97695.88;5073612;28;20222;-72
2023/12/24 10:12:34;;;;;;;0.30;0.30;;;;;;;8.99;100.00;97703.25;5073721;28;20254;-72
2023/12/24 10:15:02;;;;;;;0.30;0.30;;;;;;;9.00;100.00;97693.47;5073791;28;20211;-72
2023/12/24 10:17:29;;;;;;;0.40;0.37;;;;;;;9.05;100.00;97686.47;5073680;28;20204;-72
2023/12/24 10:19:55;;;;;;;0.77;0.40;;;;;;;9.02;100.00;97686.09;5073216;28;20235;-72
2023/12/24 10:22:24;;;;;;;0.70;0.40;;;;;;;9.04;100.00;97684.03;5073529;28;20210;-72
2023/12/24 10:24:59;;;;;;;0.63;0.30;;;;;;;9.04;100.00;97682.19;5073281;28;20228;-73
2023/12/24 10:27:25;;;;;;;0.33;0.30;;;;;;;9.12;100.00;97681.09;5073579;28;20203;-73
2023/12/24 10:29:51;;;;;;;0.30;0.30;;;;;;;9.13;100.00;97677.41;5073499;28;20228;-73
2023/12/24 10:32:25;;;;;;;0.37;0.37;;;;;;;9.11;100.00;97677.66;5073504;28;20211;-73
2023/12/24 10:34:59;;;;;;;0.30;0.30;;;;;;;9.23;100.00;97681.19;5073571;28;20204;-73
2023/12/24 10:37:29;;;;;;;0.40;0.40;;;;;;;9.22;100.00;97671.63;5073185;28;20313;-73
2023/12/24 10:40:05;;;;;;;0.47;0.40;;;;;;;9.25;100.00;97660.59;5073105;28;20228;-73
2023/12/24 10:42:31;;;;;;;0.40;0.40;;;;;;;9.35;100.00;97670.66;5072836;28;20188;-73
2023/12/24 10:44:57;;;;;;;0.93;0.40;;;;;;;9.43;100.00;97681.00;5073680;28;20228;-73
2023/12/24 10:47:24;;;;;;;0.77;0.30;;;;;;;9.45;100.00;97674.44;5073210;28;20216;-72
2023/12/24 10:49:51;;;;;;;0.70;0.30;;;;;;;9.54;100.00;97672.28;5073124;28;20231;-72
2023/12/24 10:52:18;;;;;;;0.30;0.30;;;;;;;9.56;100.00;97681.66;5073155;28;20304;-73
2023/12/24 10:54:45;;;;;;;0.40;0.40;;;;;;;9.48;100.00;97681.13;5072892;28;20556;-73
2023/12/24 10:57:43;;;;;;;0.40;0.40;;;;;;;9.58;100.00;97676.13;5073205;28;20205;-72
2023/12/24 11:00:12;;;;;;;0.37;0.37;;;;;;;9.56;100.00;97681.66;5053873;28;20306;-72
2023/12/24 11:02:44;;;;;;;1.23;0.33;;;;;;;9.59;100.00;97685.72;5076863;28;20211;-72
2023/12/24 11:05:10;;;;;;;0.30;0.30;;;;;;;9.64;100.00;97681.34;5076743;28;20219;-72
2023/12/24 11:07:47;;;;;;;0.30;0.30;;;;;;;9.76;100.00;97670.81;5076870;28;20671;-72
2023/12/24 11:10:40;;;;;;;0.23;0.23;;;;;;;9.83;100.00;97660.94;5077056;28;20231;-72
2023/12/24 11:13:32;;;;;;;0.57;0.30;;;;;;;9.85;100.00;97662.31;5077135;28;20208;-72
2023/12/24 11:15:59;;;;;;;0.20;0.20;;;;;;;9.91;100.00;97663.28;5077049;28;20254;-73
2023/12/24 11:18:46;;;;;;;0.20;0.20;;;;;;;9.95;100.00;97659.13;5076977;28;20244;-73
2023/12/24 11:21:16;;;;;;;0.90;0.20;;;;;;;10.03;100.00;97649.03;5076702;28;20597;-72
2023/12/24 11:24:03;;;;;;;0.20;0.20;;;;;;;10.08;100.00;97667.78;5077381;28;20209;-72
2023/12/24 11:26:31;;;;;;;0.20;0.20;;;;;;;10.08;100.00;97657.16;5076411;28;20204;-72
2023/12/24 11:29:02;;;;;;;0.20;0.20;;;;;;;10.14;100.00;97656.22;5076846;28;20204;-72
2023/12/24 11:31:29;;;;;;;0.20;0.20;;;;;;;10.20;100.00;97665.97;5076776;28;20667;-72
2023/12/24 11:33:56;;;;;;;0.20;0.20;;;;;;;10.13;100.00;97662.59;5076448;28;20676;-72